createdAt,value
2023-05-12T00:01:35.772Z,102072.47
2023-05-12T00:03:37.801Z,102075.44
2023-05-12T00:05:41.680Z,102078.56
2023-05-12T00:07:45.011Z,102077.72
2023-05-12T00:09:46.656Z,102078.09
2023-05-12T00:11:48.368Z,102080.22
2023-05-12T00:13:50.210Z,102077.03
2023-05-12T00:15:53.083Z,102083.78
2023-05-12T00:17:54.638Z,102078.69
2023-05-12T00:19:56.555Z,102079.94
2023-05-12T00:21:58.182Z,102080.34
2023-05-12T00:24:01.133Z,102078.88
2023-05-12T00:26:02.756Z,102079.06
2023-05-12T00:28:04.602Z,102079.25
2023-05-12T00:30:07.910Z,102076.75
2023-05-12T00:32:09.487Z,102083.47
2023-05-12T00:34:11.336Z,102084.69
2023-05-12T00:36:13.427Z,102084.94
2023-05-12T00:38:15.050Z,102078.97
2023-05-12T00:40:21.092Z,102077.28
2023-05-12T00:42:23.148Z,102079.34
2023-05-12T00:44:25.289Z,102082.31
2023-05-12T00:46:27.682Z,102077.88
2023-05-12T00:48:31.321Z,102087.97
2023-05-12T00:50:33.154Z,102090.06
2023-05-12T00:52:35.507Z,102083.13
2023-05-12T00:54:38.876Z,102084.16
2023-05-12T00:56:42.557Z,102084.34
2023-05-12T00:58:44.827Z,102093.81
2023-05-12T01:00:46.897Z,102089.59
2023-05-12T01:02:48.670Z,102089.16
2023-05-12T01:04:50.350Z,102089.34
2023-05-12T01:06:57.060Z,102090.59
2023-05-12T01:09:00.245Z,102092.66
2023-05-12T01:11:01.973Z,102088.44
2023-05-12T01:13:05.488Z,102086.31
2023-05-12T01:15:09.011Z,102095.75
2023-05-12T01:17:13.119Z,102085.22
2023-05-12T01:19:38.918Z,102090.03
2023-05-12T01:21:40.847Z,102089.56
2023-05-12T01:23:49.050Z,102094.41
2023-05-12T01:25:52.633Z,102091.22
2023-05-12T01:27:56.187Z,102087.84
2023-05-12T01:29:59.967Z,102091.81
2023-05-12T01:32:02.366Z,102098.50
2023-05-12T01:34:06.131Z,102089.66
2023-05-12T01:36:08.773Z,102092.13
2023-05-12T01:38:10.419Z,102099.03
2023-05-12T01:40:12.580Z,102092.28
2023-05-12T01:42:14.236Z,102088.25
2023-05-12T01:44:17.356Z,102086.94
2023-05-12T01:46:19.053Z,102087.34
2023-05-12T01:48:20.758Z,102085.84
2023-05-12T01:50:22.667Z,102094.44
2023-05-12T01:52:24.368Z,102086.63
2023-05-12T01:54:25.975Z,102094.38
2023-05-12T01:56:27.566Z,102092.66
2023-05-12T01:58:29.151Z,102091.19
2023-05-12T02:00:32.218Z,102091.56
2023-05-12T02:02:33.785Z,102093.84
2023-05-12T02:04:35.845Z,102101.59
2023-05-12T02:06:37.467Z,102102.63
2023-05-12T02:08:39.125Z,102099.59
2023-05-12T02:10:41.120Z,102103.59
2023-05-12T02:12:42.785Z,102108.38
2023-05-12T02:14:44.683Z,102112.53
2023-05-12T02:16:47.695Z,102111.22
2023-05-12T02:18:49.343Z,102107.19
2023-05-12T02:20:50.870Z,102116.56
2023-05-12T02:22:52.734Z,102115.31
2023-05-12T02:24:54.325Z,102119.44
2023-05-12T02:26:55.923Z,102119.81
2023-05-12T02:28:57.470Z,102115.56
2023-05-12T02:30:59.540Z,102117.00
2023-05-12T02:33:04.838Z,102116.53
2023-05-12T02:35:07.796Z,102119.66
2023-05-12T02:37:09.666Z,102120.22
2023-05-12T02:39:11.604Z,102119.56
2023-05-12T02:41:13.417Z,102119.75
2023-05-12T02:43:15.495Z,102121.81
2023-05-12T02:45:17.232Z,102128.97
2023-05-12T02:47:19.087Z,102122.00
2023-05-12T02:49:22.072Z,102129.53
2023-05-12T02:51:23.901Z,102136.22
2023-05-12T02:53:25.737Z,102133.69
2023-05-12T02:55:27.638Z,102133.22
2023-05-12T02:57:29.125Z,102127.28
2023-05-12T02:59:30.635Z,102123.03
2023-05-12T03:01:32.264Z,102128.69
2023-05-12T03:03:34.348Z,102124.44
2023-05-12T03:05:37.943Z,102128.41
2023-05-12T03:07:39.682Z,102130.47
2023-05-12T03:09:41.455Z,102127.28
2023-05-12T03:11:43.037Z,102128.69
2023-05-12T03:13:44.650Z,102131.78
2023-05-12T03:15:46.157Z,102127.75
2023-05-12T03:17:48.122Z,102135.44
2023-05-12T03:19:50.992Z,102131.19
2023-05-12T03:21:54.033Z,102133.44
2023-05-12T03:23:55.543Z,102128.19
2023-05-12T03:25:57.276Z,102131.09
2023-05-12T03:27:58.831Z,102135.91
2023-05-12T03:30:01.127Z,102136.06
2023-05-12T03:32:03.092Z,102137.31
2023-05-12T03:34:04.596Z,102138.50
2023-05-12T03:36:06.666Z,102137.84
2023-05-12T03:38:09.662Z,102140.94
2023-05-12T03:40:12.256Z,102150.16
2023-05-12T03:42:14.601Z,102141.81
2023-05-12T03:44:16.407Z,102142.84
2023-05-12T03:46:18.375Z,102148.72
2023-05-12T03:48:20.092Z,102149.47
2023-05-12T03:50:21.967Z,102145.34
2023-05-12T03:52:23.706Z,102147.41
2023-05-12T03:54:26.689Z,102153.63
2023-05-12T03:56:28.355Z,102147.50
2023-05-12T03:58:29.983Z,102140.31
2023-05-12T04:00:31.890Z,102141.38
2023-05-12T04:02:34.518Z,102146.00
2023-05-12T04:04:36.167Z,102142.59
2023-05-12T04:06:37.737Z,102146.16
2023-05-12T04:08:41.826Z,102156.06
2023-05-12T04:10:45.429Z,102151.63
2023-05-12T04:12:46.969Z,102150.59
2023-05-12T04:14:49.228Z,102150.41
2023-05-12T04:16:50.984Z,102147.69
2023-05-12T04:18:53.036Z,102149.38
2023-05-12T04:20:55.591Z,102157.38
2023-05-12T04:22:57.412Z,102158.03
2023-05-12T04:24:59.050Z,102162.28
2023-05-12T04:27:02.074Z,102156.44
2023-05-12T04:29:03.963Z,102157.09
2023-05-12T04:31:05.724Z,102164.09
2023-05-12T04:33:07.450Z,102164.56
2023-05-12T04:35:09.739Z,102166.91
2023-05-12T04:37:11.301Z,102158.72
2023-05-12T04:39:12.968Z,102160.91
2023-05-12T04:41:14.772Z,102169.56
2023-05-12T04:45:22.836Z,102172.56
2023-05-12T04:47:24.998Z,102171.16
2023-05-12T04:49:26.715Z,102172.47
2023-05-12T04:51:28.196Z,102178.88
2023-05-12T04:53:29.792Z,102174.72
2023-05-12T04:55:31.587Z,102171.44
2023-05-12T04:57:33.123Z,102177.16
2023-05-12T04:59:36.097Z,102175.97
2023-05-12T05:01:37.822Z,102183.38
2023-05-12T05:03:39.764Z,102183.69
2023-05-12T05:05:41.500Z,102183.75
2023-05-12T05:07:43.138Z,102187.28
2023-05-12T05:09:44.988Z,102190.94
2023-05-12T05:11:47.152Z,102193.56
2023-05-12T05:13:50.758Z,102197.22
2023-05-12T05:15:54.872Z,102193.53
2023-05-12T05:17:56.973Z,102195.28
2023-05-12T05:19:59.598Z,102200.63
2023-05-12T05:22:01.534Z,102197.97
2023-05-12T05:24:03.112Z,102204.38
2023-05-12T05:26:05.025Z,102198.97
2023-05-12T05:28:06.760Z,102200.72
2023-05-12T05:30:09.419Z,102206.25
2023-05-12T05:32:12.381Z,102210.75
2023-05-12T05:34:14.047Z,102212.31
2023-05-12T05:36:16.318Z,102207.53
2023-05-12T05:38:18.182Z,102210.97
2023-05-12T05:40:19.959Z,102220.75
2023-05-12T05:42:21.901Z,102222.31
2023-05-12T05:44:23.713Z,102225.56
2023-05-12T05:46:25.922Z,102225.22
2023-05-12T05:48:29.059Z,102225.47
2023-05-12T05:50:30.725Z,102229.97
2023-05-12T05:52:32.378Z,102228.78
2023-05-12T05:54:34.929Z,102231.13
2023-05-12T05:56:36.995Z,102233.53
2023-05-12T05:58:39.445Z,102230.22
2023-05-12T06:00:41.584Z,102232.38
2023-05-12T06:02:43.436Z,102224.41
2023-05-12T06:04:47.272Z,102224.03
2023-05-12T06:06:48.834Z,102232.50
2023-05-12T06:08:50.377Z,102224.53
2023-05-12T06:10:51.928Z,102219.47
2023-05-12T06:12:53.576Z,102214.41
2023-05-12T06:14:55.100Z,102214.88
2023-05-12T06:16:56.787Z,102219.94
2023-05-12T06:18:58.506Z,102224.16
2023-05-12T06:21:01.518Z,102224.34
2023-05-12T06:23:03.179Z,102225.63
2023-05-12T06:25:05.581Z,102228.59
2023-05-12T06:27:07.148Z,102228.81
2023-05-12T06:29:09.960Z,102229.19
2023-05-12T06:31:11.776Z,102230.69
2023-05-12T06:33:13.584Z,102227.47
2023-05-12T06:35:15.620Z,102234.44
2023-05-12T06:37:18.651Z,102234.41
2023-05-12T06:39:20.253Z,102236.94
2023-05-12T06:41:22.325Z,102231.41
2023-05-12T06:43:24.201Z,102242.16
2023-05-12T06:45:25.956Z,102241.91
2023-05-12T06:47:27.866Z,102250.56
2023-05-12T06:49:29.378Z,102238.88
2023-05-12T06:51:30.900Z,102244.75
2023-05-12T06:53:35.299Z,102245.72
2023-05-12T06:55:36.955Z,102243.13
2023-05-12T06:57:38.640Z,102239.66
2023-05-12T06:59:40.267Z,102242.28
2023-05-12T07:01:41.991Z,102241.38
2023-05-12T07:03:51.087Z,102241.25
2023-05-12T07:05:53.086Z,102240.09
2023-05-12T07:07:54.901Z,102234.91
2023-05-12T07:09:58.008Z,102234.16
2023-05-12T07:11:59.581Z,102240.56
2023-05-12T07:14:01.263Z,102238.38
2023-05-12T07:16:02.840Z,102244.81
2023-05-12T07:18:04.621Z,102239.84
2023-05-12T07:20:07.967Z,102238.25
2023-05-12T07:22:09.754Z,102242.38
2023-05-12T07:24:11.542Z,102241.00
2023-05-12T07:26:14.562Z,102238.50
2023-05-12T07:28:16.239Z,102245.16
2023-05-12T07:30:18.105Z,102239.69
2023-05-12T07:32:19.683Z,102240.56
2023-05-12T07:34:21.223Z,102250.81
2023-05-12T07:36:23.432Z,102233.63
2023-05-12T07:38:25.258Z,102240.56
2023-05-12T07:40:26.832Z,102239.72
2023-05-12T07:42:29.984Z,102234.22
2023-05-12T07:44:31.837Z,102231.44
2023-05-12T07:46:33.464Z,102237.81
2023-05-12T07:48:35.776Z,102233.34
2023-05-12T07:50:37.529Z,102232.50
2023-05-12T07:52:47.038Z,102234.22
2023-05-12T07:54:51.063Z,102221.94
2023-05-12T07:56:52.699Z,102238.50
2023-05-12T07:58:56.002Z,102232.09
2023-05-12T08:00:57.983Z,102242.03
2023-05-12T08:02:59.883Z,102232.25
2023-05-12T08:05:01.553Z,102237.25
2023-05-12T08:07:03.367Z,102236.97
2023-05-12T08:09:05.281Z,102235.09
2023-05-12T08:11:07.051Z,102236.44
2023-05-12T08:13:08.618Z,102239.72
2023-05-12T08:15:11.814Z,102241.06
2023-05-12T08:17:13.776Z,102236.31
2023-05-12T08:19:15.805Z,102249.81
2023-05-12T08:21:17.843Z,102246.72
2023-05-12T08:23:19.618Z,102243.00
2023-05-12T08:25:21.624Z,102239.81
2023-05-12T08:27:23.484Z,102239.47
2023-05-12T08:29:25.483Z,102241.63
2023-05-12T08:31:29.043Z,102247.63
2023-05-12T08:33:30.739Z,102249.19
2023-05-12T08:35:32.672Z,102242.63
2023-05-12T08:37:35.081Z,102242.75
2023-05-12T08:39:37.073Z,102250.09
2023-05-12T08:41:43.586Z,102252.16
2023-05-12T08:43:50.041Z,102249.16
2023-05-12T08:45:52.984Z,102242.25
2023-05-12T08:47:58.598Z,102241.78
2023-05-12T08:50:01.320Z,102249.97
2023-05-12T08:52:03.525Z,102240.59
2023-05-12T08:54:08.891Z,102247.06
2023-05-12T08:58:16.222Z,102244.72
2023-05-12T09:00:20.668Z,102251.47
2023-05-12T09:02:23.876Z,102244.28
2023-05-12T09:04:27.891Z,102244.06
2023-05-12T09:06:29.690Z,102244.41
2023-05-12T09:08:31.277Z,102243.91
2023-05-12T09:10:35.604Z,102241.13
2023-05-12T09:12:38.329Z,102236.97
2023-05-12T09:14:42.146Z,102244.84
2023-05-12T09:16:47.680Z,102239.28
2023-05-12T09:18:52.204Z,102239.06
2023-05-12T09:20:55.289Z,102245.78
2023-05-12T09:22:57.128Z,102251.66
2023-05-12T09:24:58.879Z,102249.72
2023-05-12T09:27:01.369Z,102248.91
2023-05-12T09:29:07.417Z,102249.78
2023-05-12T09:31:16.690Z,102245.34
2023-05-12T09:33:18.494Z,102247.56
2023-05-12T09:35:20.730Z,102238.34
2023-05-12T09:37:30.904Z,102243.66
2023-05-12T09:39:34.217Z,102241.41
2023-05-12T09:41:36.480Z,102246.41
2023-05-12T09:43:45.061Z,102246.44
2023-05-12T09:45:46.678Z,102252.00
2023-05-12T09:47:48.645Z,102251.97
2023-05-12T09:49:52.706Z,102250.28
2023-05-12T09:51:56.278Z,102244.13
2023-05-12T09:53:59.923Z,102250.78
2023-05-12T09:56:01.533Z,102244.59
2023-05-12T09:58:08.523Z,102241.53
2023-05-12T10:00:21.501Z,102245.41
2023-05-12T10:02:35.053Z,102242.03
2023-05-12T10:04:44.131Z,102241.69
2023-05-12T10:06:46.504Z,102237.47
2023-05-12T10:08:52.529Z,102238.00
2023-05-12T10:10:58.454Z,102230.97
2023-05-12T10:13:00.435Z,102234.81
2023-05-12T10:15:03.503Z,102237.00
2023-05-12T10:17:06.202Z,102236.16
2023-05-12T10:19:09.806Z,102238.94
2023-05-12T10:21:13.050Z,102243.34
2023-05-12T10:23:18.150Z,102245.53
2023-05-12T10:25:21.483Z,102241.56
2023-05-12T10:27:25.004Z,102240.41
2023-05-12T10:29:27.764Z,102237.25
2023-05-12T10:31:30.702Z,102237.47
2023-05-12T10:33:32.494Z,102241.03
2023-05-12T10:35:36.729Z,102233.19
2023-05-12T10:37:39.588Z,102231.78
2023-05-12T10:39:48.347Z,102236.81
2023-05-12T10:42:01.239Z,102232.56
2023-05-12T10:44:04.944Z,102236.75
2023-05-12T10:46:08.817Z,102230.56
2023-05-12T10:48:15.892Z,102229.69
2023-05-12T10:50:27.387Z,102231.00
2023-05-12T10:52:29.025Z,102234.88
2023-05-12T10:54:39.793Z,102232.31
2023-05-12T10:56:43.981Z,102222.47
2023-05-12T10:59:08.277Z,102226.03
2023-05-12T11:01:10.998Z,102225.75
2023-05-12T11:03:15.749Z,102233.88
2023-05-12T11:05:18.177Z,102222.97
2023-05-12T11:07:22.305Z,102219.63
2023-05-12T11:09:25.050Z,102227.19
2023-05-12T11:11:29.341Z,102216.00
2023-05-12T11:13:31.723Z,102214.53
2023-05-12T11:15:35.194Z,102219.03
2023-05-12T11:17:39.226Z,102224.03
2023-05-12T11:19:45.788Z,102221.19
2023-05-12T11:21:48.210Z,102223.16
2023-05-12T11:23:50.529Z,102226.78
2023-05-12T11:25:52.681Z,102231.25
2023-05-12T11:27:54.616Z,102225.03
2023-05-12T11:29:57.277Z,102224.47
2023-05-12T11:32:00.774Z,102231.75
2023-05-12T11:34:12.031Z,102227.03
2023-05-12T11:36:16.518Z,102231.00
2023-05-12T11:38:19.589Z,102236.69
2023-05-12T11:40:23.290Z,102244.31
2023-05-12T11:42:25.951Z,102236.78
2023-05-12T11:44:27.668Z,102240.78
2023-05-12T11:46:30.591Z,102244.53
2023-05-12T11:48:34.662Z,102246.00
2023-05-12T11:50:38.406Z,102245.53
2023-05-12T11:52:40.076Z,102242.16
2023-05-12T11:54:48.506Z,102241.88
2023-05-12T11:56:51.230Z,102244.38
2023-05-12T11:58:54.655Z,102245.75
2023-05-12T12:00:58.172Z,102246.03
2023-05-12T12:03:11.043Z,102244.94
2023-05-12T12:05:18.702Z,102247.16
2023-05-12T12:07:29.178Z,102255.03
2023-05-12T12:09:32.592Z,102248.03
2023-05-12T12:11:34.153Z,102248.31
2023-05-12T12:13:35.790Z,102250.81
2023-05-12T12:15:37.474Z,102247.97
2023-05-12T12:17:40.344Z,102254.94
2023-05-12T12:19:42.213Z,102245.69
2023-05-12T12:21:45.603Z,102258.31
2023-05-12T12:23:51.189Z,102244.28
2023-05-12T12:25:53.799Z,102248.16
2023-05-12T12:27:55.763Z,102246.75
2023-05-12T12:29:57.578Z,102246.16
2023-05-12T12:31:59.205Z,102249.47
2023-05-12T12:34:01.173Z,102250.88
2023-05-12T12:36:02.782Z,102250.25
2023-05-12T12:38:06.043Z,102256.13
2023-05-12T12:40:08.753Z,102248.78
2023-05-12T12:42:10.505Z,102247.06
2023-05-12T12:44:12.264Z,102251.75
2023-05-12T12:46:14.405Z,102246.16
2023-05-12T12:48:16.044Z,102237.72
2023-05-12T12:50:17.813Z,102245.34
2023-05-12T12:52:20.066Z,102245.84
2023-05-12T12:54:25.664Z,102253.97
2023-05-12T12:56:27.274Z,102244.72
2023-05-12T12:58:28.806Z,102247.59
2023-05-12T13:00:30.705Z,102239.78
2023-05-12T13:02:33.065Z,102234.47
2023-05-12T13:04:35.191Z,102245.97
2023-05-12T13:06:37.056Z,102242.63
2023-05-12T13:08:38.774Z,102243.78
2023-05-12T13:10:42.014Z,102242.94
2023-05-12T13:12:43.688Z,102245.50
2023-05-12T13:14:45.317Z,102242.97
2023-05-12T13:16:46.999Z,102235.16
2023-05-12T13:18:48.879Z,102241.91
2023-05-12T13:20:50.532Z,102239.09
2023-05-12T13:22:52.464Z,102246.66
2023-05-12T13:24:54.591Z,102242.75
2023-05-12T13:26:57.456Z,102245.84
2023-05-12T13:28:59.172Z,102241.97
2023-05-12T13:31:01.027Z,102243.94
2023-05-12T13:33:05.124Z,102238.84
2023-05-12T13:35:08.279Z,102242.75
2023-05-12T13:37:10.084Z,102244.94
2023-05-12T13:39:11.971Z,102241.03
2023-05-12T13:41:13.791Z,102243.53
2023-05-12T13:43:16.903Z,102239.06
2023-05-12T13:45:19.751Z,102237.09
2023-05-12T13:47:21.743Z,102234.88
2023-05-12T13:49:23.600Z,102231.25
2023-05-12T13:51:25.696Z,102233.22
2023-05-12T13:53:27.371Z,102232.91
2023-05-12T13:55:29.166Z,102231.50
2023-05-12T13:57:30.752Z,102224.19
2023-05-12T13:59:33.697Z,102225.31
2023-05-12T14:01:36.410Z,102232.66
2023-05-12T14:03:38.344Z,102228.25
2023-05-12T14:05:40.367Z,102227.75
2023-05-12T14:07:42.094Z,102230.06
2023-05-12T14:09:43.691Z,102225.34
2023-05-12T14:11:45.500Z,102225.06
2023-05-12T14:13:47.146Z,102227.09
2023-05-12T14:15:50.752Z,102233.03
2023-05-12T14:17:52.680Z,102237.28
2023-05-12T14:19:54.338Z,102235.41
2023-05-12T14:21:57.652Z,102235.19
2023-05-12T14:23:59.518Z,102231.38
2023-05-12T14:26:01.262Z,102242.34
2023-05-12T14:28:03.118Z,102238.16
2023-05-12T14:30:05.926Z,102237.66
2023-05-12T14:32:09.083Z,102238.25
2023-05-12T14:34:11.122Z,102235.53
2023-05-12T14:36:12.941Z,102235.00
2023-05-12T14:38:14.544Z,102240.91
2023-05-12T14:40:16.313Z,102241.50
2023-05-12T14:42:18.026Z,102244.03
2023-05-12T14:44:19.957Z,102243.75
2023-05-12T14:46:21.679Z,102246.88
2023-05-12T14:48:24.963Z,102249.13
2023-05-12T14:50:26.684Z,102243.84
2023-05-12T14:52:28.306Z,102239.94
2023-05-12T14:54:29.929Z,102253.09
2023-05-12T14:56:32.245Z,102257.28
2023-05-12T14:58:33.873Z,102254.81
2023-05-12T15:00:35.723Z,102250.63
2023-05-12T15:02:37.782Z,102248.66
2023-05-12T15:04:41.076Z,102249.25
2023-05-12T15:06:42.752Z,102245.34
2023-05-12T15:08:44.290Z,102249.78
2023-05-12T15:10:46.189Z,102253.97
2023-05-12T15:12:47.910Z,102249.50
2023-05-12T15:14:49.925Z,102251.47
2023-05-12T15:16:51.470Z,102256.47
2023-05-12T15:18:53.108Z,102243.38
2023-05-12T15:20:56.147Z,102246.16
2023-05-12T15:22:57.840Z,102246.16
2023-05-12T15:25:00.046Z,102243.38
2023-05-12T15:27:01.931Z,102243.66
2023-05-12T15:29:03.580Z,102247.00
2023-05-12T15:31:05.603Z,102247.22
2023-05-12T15:33:07.319Z,102253.91
2023-05-12T15:35:09.741Z,102250.84
2023-05-12T15:37:13.143Z,102245.81
2023-05-12T15:39:15.463Z,102245.53
2023-05-12T15:41:17.317Z,102246.63
2023-05-12T15:43:18.961Z,102251.34
2023-05-12T15:45:20.663Z,102246.56
2023-05-12T15:47:22.666Z,102248.81
2023-05-12T15:49:24.584Z,102247.13
2023-05-12T15:51:26.622Z,102245.44
2023-05-12T15:53:29.839Z,102241.81
2023-05-12T15:55:31.467Z,102240.69
2023-05-12T15:57:33.353Z,102240.94
2023-05-12T15:59:35.073Z,102239.75
2023-05-12T16:01:37.122Z,102243.06
2023-05-12T16:03:40.031Z,102242.47
2023-05-12T16:05:41.789Z,102237.16
2023-05-12T16:07:43.423Z,102241.59
2023-05-12T16:09:46.400Z,102238.50
2023-05-12T16:11:48.000Z,102231.53
2023-05-12T16:13:51.670Z,102232.91
2023-05-12T16:15:53.345Z,102233.72
2023-05-12T16:17:55.086Z,102234.28
2023-05-12T16:19:56.882Z,102229.22
2023-05-12T16:21:58.605Z,102239.50
2023-05-12T16:24:00.475Z,102232.22
2023-05-12T16:26:03.681Z,102230.81
2023-05-12T16:28:05.255Z,102226.53
2023-05-12T16:30:08.079Z,102235.13
2023-05-12T16:32:10.276Z,102227.59
2023-05-12T16:34:12.114Z,102237.84
2023-05-12T16:36:13.905Z,102229.75
2023-05-12T16:38:15.573Z,102234.97
2023-05-12T16:40:17.430Z,102232.97
2023-05-12T16:42:20.545Z,102228.94
2023-05-12T16:44:22.139Z,102234.97
2023-05-12T16:46:23.976Z,102241.88
2023-05-12T16:48:25.560Z,102241.22
2023-05-12T16:50:27.309Z,102239.75
2023-05-12T16:52:28.886Z,102239.63
2023-05-12T16:54:31.423Z,102244.28
2023-05-12T16:56:33.362Z,102247.03
2023-05-12T16:58:36.811Z,102245.56
2023-05-12T17:00:38.744Z,102240.78
2023-05-12T17:02:40.982Z,102243.47
2023-05-12T17:04:42.636Z,102244.28
2023-05-12T17:06:44.343Z,102246.75
2023-05-12T17:08:46.268Z,102241.94
2023-05-12T17:10:47.914Z,102246.34
2023-05-12T17:12:49.529Z,102241.31
2023-05-12T17:15:06.313Z,102245.91
2023-05-12T17:17:09.595Z,102249.97
2023-05-12T17:19:14.566Z,102246.81
2023-05-12T17:21:16.657Z,102244.47
2023-05-12T17:23:18.218Z,102241.06
2023-05-12T17:25:20.825Z,102245.75
2023-05-12T17:27:22.653Z,102241.28
2023-05-12T17:29:24.200Z,102246.09
2023-05-12T17:31:28.070Z,102242.78
2023-05-12T17:33:29.761Z,102252.28
2023-05-12T17:35:32.074Z,102248.16
2023-05-12T17:37:34.148Z,102249.84
2023-05-12T17:39:36.081Z,102243.84
2023-05-12T17:41:37.736Z,102258.91
2023-05-12T17:43:39.626Z,102243.69
2023-05-12T17:45:41.482Z,102259.84
2023-05-12T17:47:45.546Z,102261.00
2023-05-12T17:49:47.670Z,102257.97
2023-05-12T17:51:49.509Z,102259.38
2023-05-12T17:53:51.161Z,102271.88
2023-05-12T17:55:52.819Z,102264.47
2023-05-12T17:57:54.379Z,102263.13
2023-05-12T17:59:56.247Z,102269.22
2023-05-12T18:01:58.215Z,102269.25
2023-05-12T18:04:01.228Z,102264.56
2023-05-12T18:06:03.165Z,102271.84
2023-05-12T18:08:05.227Z,102270.53
2023-05-12T18:10:07.988Z,102275.00
2023-05-12T18:12:09.839Z,102274.28
2023-05-12T18:14:11.463Z,102274.84
2023-05-12T18:16:25.216Z,102276.91
2023-05-12T18:18:30.229Z,102273.66
2023-05-12T18:20:33.828Z,102274.84
2023-05-12T18:22:35.706Z,102272.47
2023-05-12T18:24:37.265Z,102269.19
2023-05-12T18:26:38.831Z,102274.50
2023-05-12T18:28:40.424Z,102281.44
2023-05-12T18:30:42.356Z,102273.72
2023-05-12T18:32:44.249Z,102286.41
2023-05-12T18:34:45.888Z,102292.25
2023-05-12T18:36:49.277Z,102288.13
2023-05-12T18:38:51.357Z,102282.94
2023-05-12T18:40:53.203Z,102290.47
2023-05-12T18:42:54.855Z,102293.81
2023-05-12T18:44:56.669Z,102291.34
2023-05-12T18:46:58.341Z,102298.28
2023-05-12T18:49:00.017Z,102298.59
2023-05-12T18:51:02.027Z,102297.00
2023-05-12T18:53:05.166Z,102299.19
2023-05-12T18:55:08.157Z,102305.84
2023-05-12T18:57:09.702Z,102301.47
2023-05-12T18:59:11.686Z,102308.38
2023-05-12T19:01:13.569Z,102298.22
2023-05-12T19:03:15.418Z,102312.09
2023-05-12T19:05:17.036Z,102307.50
2023-05-12T19:07:18.909Z,102315.19
2023-05-12T19:09:21.921Z,102311.88
2023-05-12T19:11:23.554Z,102316.59
2023-05-12T19:13:25.099Z,102314.75
2023-05-12T19:15:27.185Z,102317.56
2023-05-12T19:17:29.095Z,102318.69
2023-05-12T19:19:30.648Z,102322.53
2023-05-12T19:21:32.408Z,102315.38
2023-05-12T19:23:34.083Z,102321.75
2023-05-12T19:25:37.014Z,102323.72
2023-05-12T19:27:41.080Z,102323.16
2023-05-12T19:29:42.727Z,102329.53
2023-05-12T19:31:44.980Z,102328.97
2023-05-12T19:33:46.977Z,102327.28
2023-05-12T19:35:48.968Z,102333.25
2023-05-12T19:37:51.104Z,102330.53
2023-05-12T19:39:52.664Z,102328.66
2023-05-12T19:41:55.635Z,102327.63
2023-05-12T19:43:57.216Z,102331.00
2023-05-12T19:45:58.935Z,102333.59
2023-05-12T19:48:00.548Z,102329.75
2023-05-12T19:50:02.419Z,102335.94
2023-05-12T19:52:05.547Z,102336.78
2023-05-12T19:54:07.535Z,102336.59
2023-05-12T19:56:09.355Z,102331.72
2023-05-12T19:58:12.718Z,102331.50
2023-05-12T20:00:15.102Z,102324.75
2023-05-12T20:02:17.465Z,102331.97
2023-05-12T20:04:19.255Z,102339.81
2023-05-12T20:06:20.979Z,102345.09
2023-05-12T20:08:22.819Z,102340.44
2023-05-12T20:10:24.511Z,102337.28
2023-05-12T20:12:26.135Z,102341.50
2023-05-12T20:14:29.034Z,102338.78
2023-05-12T20:16:30.661Z,102332.19
2023-05-12T20:18:32.428Z,102331.16
2023-05-12T20:20:34.092Z,102339.19
2023-05-12T20:22:35.729Z,102345.31
2023-05-12T20:24:37.270Z,102340.00
2023-05-12T20:26:38.930Z,102339.78
2023-05-12T20:28:40.820Z,102342.53
2023-05-12T20:30:43.704Z,102337.00
2023-05-12T20:32:45.845Z,102340.59
2023-05-12T20:34:47.531Z,102346.69
2023-05-12T20:36:49.552Z,102342.66
2023-05-12T20:38:51.372Z,102341.41
2023-05-12T20:40:53.760Z,102339.28
2023-05-12T20:42:55.594Z,102343.50
2023-05-12T20:44:57.125Z,102343.25
2023-05-12T20:47:00.178Z,102344.94
2023-05-12T20:49:02.300Z,102350.41
2023-05-12T20:51:13.500Z,102345.56
2023-05-12T20:53:15.157Z,102352.06
2023-05-12T20:55:16.816Z,102353.53
2023-05-12T20:57:18.658Z,102367.00
2023-05-12T20:59:20.326Z,102358.31
2023-05-12T21:01:22.273Z,102364.22
2023-05-12T21:03:25.838Z,102363.78
2023-05-12T21:05:27.786Z,102363.53
2023-05-12T21:07:30.556Z,102365.84
2023-05-12T21:09:32.134Z,102364.78
2023-05-12T21:11:33.759Z,102364.28
2023-05-12T21:13:35.330Z,102358.38
2023-05-12T21:15:37.299Z,102364.22
2023-05-12T21:17:39.338Z,102367.38
2023-05-12T21:19:43.253Z,102363.16
2023-05-12T21:21:44.940Z,102365.47
2023-05-12T21:23:46.604Z,102375.97
2023-05-12T21:25:48.306Z,102378.06
2023-05-12T21:27:49.954Z,102374.69
2023-05-12T21:29:51.775Z,102375.94
2023-05-12T21:31:53.473Z,102377.16
2023-05-12T21:33:55.022Z,102382.03
2023-05-12T21:35:58.994Z,102380.50
2023-05-12T21:38:01.013Z,102372.06
2023-05-12T21:40:02.983Z,102385.31
2023-05-12T21:42:05.199Z,102382.13
2023-05-12T21:44:07.783Z,102378.25
2023-05-12T21:46:10.889Z,102381.59
2023-05-12T21:48:12.777Z,102381.34
2023-05-12T21:50:14.670Z,102387.41
2023-05-12T21:52:17.702Z,102386.13
2023-05-12T21:54:19.287Z,102380.41
2023-05-12T21:56:21.141Z,102392.56
2023-05-12T21:58:22.829Z,102392.13
2023-05-12T22:00:24.705Z,102386.00
2023-05-12T22:02:26.442Z,102393.38
2023-05-12T22:04:28.729Z,102391.88
2023-05-12T22:06:31.251Z,102398.41
2023-05-12T22:08:34.583Z,102388.69
2023-05-12T22:10:36.141Z,102398.13
2023-05-12T22:12:37.766Z,102397.47
2023-05-12T22:14:39.426Z,102404.19
2023-05-12T22:16:42.563Z,102397.44
2023-05-12T22:18:44.521Z,102398.00
2023-05-12T22:20:46.154Z,102398.56
2023-05-12T22:22:47.925Z,102396.41
2023-05-12T22:24:50.968Z,102400.75
2023-05-12T22:26:52.769Z,102396.88
2023-05-12T22:28:54.472Z,102393.91
2023-05-12T22:30:56.529Z,102397.19
2023-05-12T22:32:58.313Z,102391.44
2023-05-12T22:34:59.983Z,102394.56
2023-05-12T22:37:01.601Z,102403.34
2023-05-12T22:39:03.327Z,102398.25
2023-05-12T22:41:08.154Z,102399.28
2023-05-12T22:43:09.773Z,102394.22
2023-05-12T22:45:11.390Z,102394.59
2023-05-12T22:47:13.067Z,102393.09
2023-05-12T22:49:14.873Z,102390.72
2023-05-12T22:51:16.544Z,102403.75
2023-05-12T22:53:18.456Z,102399.53
2023-05-12T22:55:20.260Z,102403.69
2023-05-12T22:57:23.408Z,102406.78
2023-05-12T22:59:25.059Z,102408.00
2023-05-12T23:01:26.785Z,102407.34
2023-05-12T23:03:28.602Z,102405.00
2023-05-12T23:05:30.316Z,102410.47
2023-05-12T23:07:31.981Z,102404.34
2023-05-12T23:09:33.832Z,102399.06
2023-05-12T23:11:35.832Z,102393.78
2023-05-12T23:13:38.815Z,102404.06
2023-05-12T23:15:40.521Z,102400.66
2023-05-12T23:17:42.326Z,102400.88
2023-05-12T23:19:43.871Z,102403.13
2023-05-12T23:21:45.496Z,102399.88
2023-05-12T23:23:48.964Z,102405.56